Pagina principale
METAR-TAF:

METAR-TAF

Aeroporti :

Aeroporto di Ajaccio Napoleone Bonaparte

Ajaccio, Francia

latitudine: 41-55N, longitudine: 008-48E, altezza: 6 m

Osservazione

Il bollettino è stato emesso 18 minuti fa, alle 01:00 UTC
Vento 7 kt da nord/nord-est
Temperature 6°C
Umidità 93%
Pressione 1027 hPa
Visibilità 10 km o più
nessuna nube inferiore a 1500 m e nessun cumulonembo

METAR: LFKJ 240100Z AUTO 03007KT CAVOK 06/05 Q1027 TEMPO BKN014

Ora: 02:18 (01:18 UTC)

Previsione

Il bollettino è stato emesso 5 ore e 18 minuti fa, alle 20:00 UTC
Previsione valida dal 23 alle 21 UTC al 24 alle 21 UTC
Vento 5 kt da nord-est
Visibilità 10 km o più
Nubi sparse ad un'altezza di 2000 ft
Probabilità 30% :
Temporaneamente
dal 23 alle 21 UTC al 24 alle 09 UTC
Nuvoloso ad un'altezza di 1400 ft
Temporaneamente
dal 24 alle 10 UTC al 24 alle 15 UTC
Vento 10 kt da sud-ovest

TAF: LFKJ 232000Z 2321/2421 05005KT 9999 SCT020 PROB30 TEMPO 2321/2409 BKN014 TEMPO 2410/2415 23010KT

Osservazioni e previsioni meteorologiche di più di 4000 aeroporti (messaggi METAR e TAF).

Le stazioni disponibili sono rappresentate dai dischi gialli e rossi sulla carta.

Puntare il mouse per vedere il nome della stazione.

Clicca sopra per visualizzare le osservazioni e previsioni meteorologiche.

Per cambiare la mappa : fare clic sui pulsanti verdi con una croce nera per ingrandire, il pulsante verde con un trattino per diminuire, o sulla freccia verde per le mappe adiacenti.


METAR-TAF: